sensor_id;sensor_type;location;lat;lon;timestamp;temperature;humidity
20125;DHT22;10223;50.862;4.360;2023-10-08T00:01:38;17.00;99.90
20125;DHT22;10223;50.862;4.360;2023-10-08T00:04:08;17.00;99.90
20125;DHT22;10223;50.862;4.360;2023-10-08T00:06:36;17.10;99.90
20125;DHT22;10223;50.862;4.360;2023-10-08T00:09:03;17.00;99.90
20125;DHT22;10223;50.862;4.360;2023-10-08T00:11:34;16.90;99.90
20125;DHT22;10223;50.862;4.360;2023-10-08T00:14:04;16.80;99.90
20125;DHT22;10223;50.862;4.360;2023-10-08T00:16:49;16.80;99.90
20125;DHT22;10223;50.862;4.360;2023-10-08T00:19:16;16.70;99.90
20125;DHT22;10223;50.862;4.360;2023-10-08T00:21:44;16.80;99.90
20125;DHT22;10223;50.862;4.360;2023-10-08T00:24:14;16.60;99.90
20125;DHT22;10223;50.862;4.360;2023-10-08T00:26:41;16.70;99.90
20125;DHT22;10223;50.862;4.360;2023-10-08T00:29:10;16.70;99.90
20125;DHT22;10223;50.862;4.360;2023-10-08T00:31:43;16.60;99.90
20125;DHT22;10223;50.862;4.360;2023-10-08T00:34:11;16.60;99.90
20125;DHT22;10223;50.862;4.360;2023-10-08T00:36:39;16.70;99.90
20125;DHT22;10223;50.862;4.360;2023-10-08T00:39:07;16.60;99.90
20125;DHT22;10223;50.862;4.360;2023-10-08T00:41:39;16.60;99.90
20125;DHT22;10223;50.862;4.360;2023-10-08T00:44:10;16.70;99.90
20125;DHT22;10223;50.862;4.360;2023-10-08T00:46:41;16.60;99.90
20125;DHT22;10223;50.862;4.360;2023-10-08T00:49:13;16.60;99.90
20125;DHT22;10223;50.862;4.360;2023-10-08T00:51:57;16.50;99.90
20125;DHT22;10223;50.862;4.360;2023-10-08T00:54:49;16.40;99.90
20125;DHT22;10223;50.862;4.360;2023-10-08T00:57:31;16.40;99.90
20125;DHT22;10223;50.862;4.360;2023-10-08T01:00:03;16.30;99.90
20125;DHT22;10223;50.862;4.360;2023-10-08T01:02:40;16.30;99.90
20125;DHT22;10223;50.862;4.360;2023-10-08T01:05:14;16.30;99.90
20125;DHT22;10223;50.862;4.360;2023-10-08T01:07:46;16.20;99.90
20125;DHT22;10223;50.862;4.360;2023-10-08T01:10:14;16.20;99.90
20125;DHT22;10223;50.862;4.360;2023-10-08T01:12:45;16.20;99.90
20125;DHT22;10223;50.862;4.360;2023-10-08T01:15:31;16.20;99.90
20125;DHT22;10223;50.862;4.360;2023-10-08T01:18:01;16.10;99.90
20125;DHT22;10223;50.862;4.360;2023-10-08T01:20:30;16.10;99.90
20125;DHT22;10223;50.862;4.360;2023-10-08T01:23:03;16.10;99.90
20125;DHT22;10223;50.862;4.360;2023-10-08T01:25:35;16.10;99.90
20125;DHT22;10223;50.862;4.360;2023-10-08T01:28:03;16.00;99.90
20125;DHT22;10223;50.862;4.360;2023-10-08T01:30:34;16.00;99.90
20125;DHT22;10223;50.862;4.360;2023-10-08T01:33:06;16.00;99.90
20125;DHT22;10223;50.862;4.360;2023-10-08T01:35:36;15.90;99.90
20125;DHT22;10223;50.862;4.360;2023-10-08T01:38:05;15.80;99.90
20125;DHT22;10223;50.862;4.360;2023-10-08T01:40:32;15.80;99.90
20125;DHT22;10223;50.862;4.360;2023-10-08T01:42:59;15.90;99.90
20125;DHT22;10223;50.862;4.360;2023-10-08T01:45:27;15.80;99.90
20125;DHT22;10223;50.862;4.360;2023-10-08T01:47:55;15.80;99.90
20125;DHT22;10223;50.862;4.360;2023-10-08T01:50:22;15.80;99.90
20125;DHT22;10223;50.862;4.360;2023-10-08T01:52:51;15.80;99.90
20125;DHT22;10223;50.862;4.360;2023-10-08T01:55:19;15.80;99.90
20125;DHT22;10223;50.862;4.360;2023-10-08T01:57:48;15.80;99.90
20125;DHT22;10223;50.862;4.360;2023-10-08T02:00:17;15.90;99.90
20125;DHT22;10223;50.862;4.360;2023-10-08T02:02:45;15.80;99.90
20125;DHT22;10223;50.862;4.360;2023-10-08T02:05:12;15.80;99.90
20125;DHT22;10223;50.862;4.360;2023-10-08T02:07:41;15.80;99.90
20125;DHT22;10223;50.862;4.360;2023-10-08T02:10:09;15.70;99.90
20125;DHT22;10223;50.862;4.360;2023-10-08T02:12:38;15.70;99.90
20125;DHT22;10223;50.862;4.360;2023-10-08T02:15:06;15.90;99.90
20125;DHT22;10223;50.862;4.360;2023-10-08T02:17:33;15.70;99.90
20125;DHT22;10223;50.862;4.360;2023-10-08T02:20:00;15.70;99.90
20125;DHT22;10223;50.862;4.360;2023-10-08T02:22:30;15.70;99.90
20125;DHT22;10223;50.862;4.360;2023-10-08T02:24:58;15.60;99.90
20125;DHT22;10223;50.862;4.360;2023-10-08T02:27:27;15.60;99.90
20125;DHT22;10223;50.862;4.360;2023-10-08T02:29:55;15.50;99.90
20125;DHT22;10223;50.862;4.360;2023-10-08T02:32:22;15.50;99.90
20125;DHT22;10223;50.862;4.360;2023-10-08T02:34:49;15.50;99.90
20125;DHT22;10223;50.862;4.360;2023-10-08T02:37:16;15.50;99.90
20125;DHT22;10223;50.862;4.360;2023-10-08T02:39:45;15.50;99.90
20125;DHT22;10223;50.862;4.360;2023-10-08T02:42:13;15.60;99.90
20125;DHT22;10223;50.862;4.360;2023-10-08T02:44:40;15.60;99.90
20125;DHT22;10223;50.862;4.360;2023-10-08T02:47:10;15.60;99.90
20125;DHT22;10223;50.862;4.360;2023-10-08T02:49:39;15.50;99.90
20125;DHT22;10223;50.862;4.360;2023-10-08T02:52:07;15.60;99.90
20125;DHT22;10223;50.862;4.360;2023-10-08T02:54:35;15.50;99.90
20125;DHT22;10223;50.862;4.360;2023-10-08T02:57:03;15.60;99.90
20125;DHT22;10223;50.862;4.360;2023-10-08T02:59:35;15.50;99.90
20125;DHT22;10223;50.862;4.360;2023-10-08T03:02:06;15.50;99.90
20125;DHT22;10223;50.862;4.360;2023-10-08T03:04:40;15.40;99.90
20125;DHT22;10223;50.862;4.360;2023-10-08T03:07:08;15.40;99.90
20125;DHT22;10223;50.862;4.360;2023-10-08T03:09:46;15.40;99.90
20125;DHT22;10223;50.862;4.360;2023-10-08T03:12:15;15.40;99.90
20125;DHT22;10223;50.862;4.360;2023-10-08T03:14:43;15.50;99.90
20125;DHT22;10223;50.862;4.360;2023-10-08T03:17:27;15.30;99.90
20125;DHT22;10223;50.862;4.360;2023-10-08T03:19:56;15.30;99.90
20125;DHT22;10223;50.862;4.360;2023-10-08T03:22:44;15.30;99.90
20125;DHT22;10223;50.862;4.360;2023-10-08T03:25:12;15.40;99.90
20125;DHT22;10223;50.862;4.360;2023-10-08T03:27:42;15.30;99.90
20125;DHT22;10223;50.862;4.360;2023-10-08T03:30:09;15.30;99.90
20125;DHT22;10223;50.862;4.360;2023-10-08T03:32:40;15.30;99.90
20125;DHT22;10223;50.862;4.360;2023-10-08T03:35:09;15.30;99.90
20125;DHT22;10223;50.862;4.360;2023-10-08T03:37:38;15.30;99.90
20125;DHT22;10223;50.862;4.360;2023-10-08T03:40:11;15.30;99.90
20125;DHT22;10223;50.862;4.360;2023-10-08T03:42:51;15.30;99.90
20125;DHT22;10223;50.862;4.360;2023-10-08T03:45:21;15.30;99.90
20125;DHT22;10223;50.862;4.360;2023-10-08T03:48:02;15.30;99.90
20125;DHT22;10223;50.862;4.360;2023-10-08T03:50:37;15.20;99.90
20125;DHT22;10223;50.862;4.360;2023-10-08T03:53:09;15.20;99.90
20125;DHT22;10223;50.862;4.360;2023-10-08T03:55:37;15.20;99.90
20125;DHT22;10223;50.862;4.360;2023-10-08T03:58:06;15.10;99.90
20125;DHT22;10223;50.862;4.360;2023-10-08T04:00:37;15.10;99.90
20125;DHT22;10223;50.862;4.360;2023-10-08T04:03:07;15.20;99.90
20125;DHT22;10223;50.862;4.360;2023-10-08T04:05:38;15.20;99.90
20125;DHT22;10223;50.862;4.360;2023-10-08T04:08:25;15.10;99.90
20125;DHT22;10223;50.862;4.360;2023-10-08T04:11:08;15.10;99.90
20125;DHT22;10223;50.862;4.360;2023-10-08T04:13:48;15.10;99.90
20125;DHT22;10223;50.862;4.360;2023-10-08T04:16:17;15.10;99.90
20125;DHT22;10223;50.862;4.360;2023-10-08T04:18:46;15.10;99.90
20125;DHT22;10223;50.862;4.360;2023-10-08T04:21:17;15.10;99.90
20125;DHT22;10223;50.862;4.360;2023-10-08T04:23:46;15.10;99.90
20125;DHT22;10223;50.862;4.360;2023-10-08T04:26:17;15.10;99.90
20125;DHT22;10223;50.862;4.360;2023-10-08T04:28:46;15.10;99.90
20125;DHT22;10223;50.862;4.360;2023-10-08T04:31:14;15.10;99.90
20125;DHT22;10223;50.862;4.360;2023-10-08T04:33:44;15.10;99.90
20125;DHT22;10223;50.862;4.360;2023-10-08T04:36:12;15.20;99.90
20125;DHT22;10223;50.862;4.360;2023-10-08T04:38:47;15.10;99.90
20125;DHT22;10223;50.862;4.360;2023-10-08T04:41:15;15.10;99.90
20125;DHT22;10223;50.862;4.360;2023-10-08T04:43:45;15.10;99.90
20125;DHT22;10223;50.862;4.360;2023-10-08T04:46:15;15.10;99.90
20125;DHT22;10223;50.862;4.360;2023-10-08T04:49:04;15.10;99.90
20125;DHT22;10223;50.862;4.360;2023-10-08T04:51:34;15.10;99.90
20125;DHT22;10223;50.862;4.360;2023-10-08T04:54:10;15.10;99.90
20125;DHT22;10223;50.862;4.360;2023-10-08T04:56:42;15.00;99.90
20125;DHT22;10223;50.862;4.360;2023-10-08T04:59:09;15.00;99.90
20125;DHT22;10223;50.862;4.360;2023-10-08T05:01:37;15.00;99.90
20125;DHT22;10223;50.862;4.360;2023-10-08T05:04:13;15.00;99.90
20125;DHT22;10223;50.862;4.360;2023-10-08T05:06:58;15.00;99.90
20125;DHT22;10223;50.862;4.360;2023-10-08T05:09:44;15.00;99.90
20125;DHT22;10223;50.862;4.360;2023-10-08T05:12:18;14.90;99.90
20125;DHT22;10223;50.862;4.360;2023-10-08T05:15:03;14.90;99.90
20125;DHT22;10223;50.862;4.360;2023-10-08T05:17:58;15.00;99.90
20125;DHT22;10223;50.862;4.360;2023-10-08T05:20:39;15.00;99.90
20125;DHT22;10223;50.862;4.360;2023-10-08T05:23:19;15.00;99.90
20125;DHT22;10223;50.862;4.360;2023-10-08T05:26:08;15.00;99.90
20125;DHT22;10223;50.862;4.360;2023-10-08T05:28:46;15.00;99.90
20125;DHT22;10223;50.862;4.360;2023-10-08T05:31:27;14.90;99.90
20125;DHT22;10223;50.862;4.360;2023-10-08T05:34:12;15.00;99.90
20125;DHT22;10223;50.862;4.360;2023-10-08T05:36:44;15.00;99.90
20125;DHT22;10223;50.862;4.360;2023-10-08T05:39:16;15.00;99.90
20125;DHT22;10223;50.862;4.360;2023-10-08T05:41:56;15.10;99.90
20125;DHT22;10223;50.862;4.360;2023-10-08T05:44:38;15.10;99.90
20125;DHT22;10223;50.862;4.360;2023-10-08T05:47:06;15.00;99.90
20125;DHT22;10223;50.862;4.360;2023-10-08T05:49:52;15.00;99.90
20125;DHT22;10223;50.862;4.360;2023-10-08T05:52:41;15.20;99.90
20125;DHT22;10223;50.862;4.360;2023-10-08T05:55:16;15.00;99.90
20125;DHT22;10223;50.862;4.360;2023-10-08T05:57:52;15.00;99.90
20125;DHT22;10223;50.862;4.360;2023-10-08T06:00:28;15.00;99.90
20125;DHT22;10223;50.862;4.360;2023-10-08T06:03:15;14.90;99.90
20125;DHT22;10223;50.862;4.360;2023-10-08T06:06:01;15.00;99.90
20125;DHT22;10223;50.862;4.360;2023-10-08T06:08:45;15.00;99.90
20125;DHT22;10223;50.862;4.360;2023-10-08T06:11:29;15.00;99.90
20125;DHT22;10223;50.862;4.360;2023-10-08T06:14:08;15.10;99.90
20125;DHT22;10223;50.862;4.360;2023-10-08T06:16:42;15.00;99.90
20125;DHT22;10223;50.862;4.360;2023-10-08T06:19:11;15.00;99.90
20125;DHT22;10223;50.862;4.360;2023-10-08T06:21:41;15.00;99.90
20125;DHT22;10223;50.862;4.360;2023-10-08T06:24:09;15.00;99.90
20125;DHT22;10223;50.862;4.360;2023-10-08T06:26:36;14.90;99.90
20125;DHT22;10223;50.862;4.360;2023-10-08T06:29:10;15.00;99.90
20125;DHT22;10223;50.862;4.360;2023-10-08T06:31:52;15.20;99.90
20125;DHT22;10223;50.862;4.360;2023-10-08T06:34:20;15.10;99.90
20125;DHT22;10223;50.862;4.360;2023-10-08T06:36:48;15.10;99.90
20125;DHT22;10223;50.862;4.360;2023-10-08T06:39:20;15.20;99.90
20125;DHT22;10223;50.862;4.360;2023-10-08T06:41:52;15.30;99.90
20125;DHT22;10223;50.862;4.360;2023-10-08T06:44:20;15.10;99.90
20125;DHT22;10223;50.862;4.360;2023-10-08T06:46:47;15.20;99.90
20125;DHT22;10223;50.862;4.360;2023-10-08T06:49:18;15.20;99.90
20125;DHT22;10223;50.862;4.360;2023-10-08T06:51:49;15.30;99.90
20125;DHT22;10223;50.862;4.360;2023-10-08T06:54:17;15.30;99.90
20125;DHT22;10223;50.862;4.360;2023-10-08T06:56:44;15.30;99.90
20125;DHT22;10223;50.862;4.360;2023-10-08T06:59:17;15.50;99.90
20125;DHT22;10223;50.862;4.360;2023-10-08T07:01:45;15.40;99.90
20125;DHT22;10223;50.862;4.360;2023-10-08T07:04:13;15.50;99.90
20125;DHT22;10223;50.862;4.360;2023-10-08T07:06:40;15.40;99.90
20125;DHT22;10223;50.862;4.360;2023-10-08T07:09:09;15.40;99.90
20125;DHT22;10223;50.862;4.360;2023-10-08T07:11:48;15.60;99.90
20125;DHT22;10223;50.862;4.360;2023-10-08T07:14:20;15.70;99.90
20125;DHT22;10223;50.862;4.360;2023-10-08T07:16:49;15.90;99.90
20125;DHT22;10223;50.862;4.360;2023-10-08T07:19:18;15.90;99.90
20125;DHT22;10223;50.862;4.360;2023-10-08T07:21:45;16.00;99.90
20125;DHT22;10223;50.862;4.360;2023-10-08T07:24:13;16.40;99.90
20125;DHT22;10223;50.862;4.360;2023-10-08T07:26:43;16.60;99.90
20125;DHT22;10223;50.862;4.360;2023-10-08T07:29:14;16.60;99.90
20125;DHT22;10223;50.862;4.360;2023-10-08T07:31:46;16.40;99.90
20125;DHT22;10223;50.862;4.360;2023-10-08T07:34:16;16.10;99.90
20125;DHT22;10223;50.862;4.360;2023-10-08T07:36:45;16.00;99.90
20125;DHT22;10223;50.862;4.360;2023-10-08T07:39:13;16.10;99.90
20125;DHT22;10223;50.862;4.360;2023-10-08T07:41:51;16.20;99.90
20125;DHT22;10223;50.862;4.360;2023-10-08T07:44:19;16.40;99.90
20125;DHT22;10223;50.862;4.360;2023-10-08T07:46:48;16.50;99.90
20125;DHT22;10223;50.862;4.360;2023-10-08T07:49:16;16.80;99.90
20125;DHT22;10223;50.862;4.360;2023-10-08T07:51:44;16.80;99.90
20125;DHT22;10223;50.862;4.360;2023-10-08T07:54:17;16.90;99.90
20125;DHT22;10223;50.862;4.360;2023-10-08T07:56:45;17.10;99.90
20125;DHT22;10223;50.862;4.360;2023-10-08T07:59:13;17.00;99.90
20125;DHT22;10223;50.862;4.360;2023-10-08T08:01:42;17.10;99.90
20125;DHT22;10223;50.862;4.360;2023-10-08T08:04:09;17.40;99.90
20125;DHT22;10223;50.862;4.360;2023-10-08T08:06:41;17.40;99.90
20125;DHT22;10223;50.862;4.360;2023-10-08T08:09:08;17.60;99.90
20125;DHT22;10223;50.862;4.360;2023-10-08T08:11:43;17.60;99.90
20125;DHT22;10223;50.862;4.360;2023-10-08T08:14:12;17.70;99.90
20125;DHT22;10223;50.862;4.360;2023-10-08T08:16:42;17.60;99.90
20125;DHT22;10223;50.862;4.360;2023-10-08T08:19:11;17.70;99.90
20125;DHT22;10223;50.862;4.360;2023-10-08T08:21:43;17.90;99.90
20125;DHT22;10223;50.862;4.360;2023-10-08T08:24:12;18.20;99.90
20125;DHT22;10223;50.862;4.360;2023-10-08T08:26:39;18.20;99.90
20125;DHT22;10223;50.862;4.360;2023-10-08T08:29:26;18.40;99.90
20125;DHT22;10223;50.862;4.360;2023-10-08T08:31:54;18.60;99.90
20125;DHT22;10223;50.862;4.360;2023-10-08T08:34:22;18.60;99.90
20125;DHT22;10223;50.862;4.360;2023-10-08T08:36:50;18.60;99.90
20125;DHT22;10223;50.862;4.360;2023-10-08T08:39:18;18.80;99.90
20125;DHT22;10223;50.862;4.360;2023-10-08T08:41:59;19.00;99.90
20125;DHT22;10223;50.862;4.360;2023-10-08T08:44:28;18.60;99.90
20125;DHT22;10223;50.862;4.360;2023-10-08T08:46:58;19.20;99.90
20125;DHT22;10223;50.862;4.360;2023-10-08T08:49:27;19.40;99.90
20125;DHT22;10223;50.862;4.360;2023-10-08T08:51:56;19.10;99.90
20125;DHT22;10223;50.862;4.360;2023-10-08T08:54:27;19.00;99.90
20125;DHT22;10223;50.862;4.360;2023-10-08T08:56:56;19.10;99.90
20125;DHT22;10223;50.862;4.360;2023-10-08T08:59:26;19.40;99.90
20125;DHT22;10223;50.862;4.360;2023-10-08T09:01:56;19.50;99.90
20125;DHT22;10223;50.862;4.360;2023-10-08T09:04:30;19.60;99.90
20125;DHT22;10223;50.862;4.360;2023-10-08T09:07:00;19.30;99.90
20125;DHT22;10223;50.862;4.360;2023-10-08T09:09:33;19.20;99.90
20125;DHT22;10223;50.862;4.360;2023-10-08T09:12:05;19.60;99.90
20125;DHT22;10223;50.862;4.360;2023-10-08T09:17:18;19.80;99.90
20125;DHT22;10223;50.862;4.360;2023-10-08T09:19:52;19.70;99.90
20125;DHT22;10223;50.862;4.360;2023-10-08T09:22:21;20.10;99.90
20125;DHT22;10223;50.862;4.360;2023-10-08T09:24:49;20.40;99.90
20125;DHT22;10223;50.862;4.360;2023-10-08T09:27:19;20.60;99.90
20125;DHT22;10223;50.862;4.360;2023-10-08T09:29:47;20.50;99.90
20125;DHT22;10223;50.862;4.360;2023-10-08T09:32:14;20.70;99.90
20125;DHT22;10223;50.862;4.360;2023-10-08T09:34:48;20.70;99.90
20125;DHT22;10223;50.862;4.360;2023-10-08T09:37:17;20.80;99.90
20125;DHT22;10223;50.862;4.360;2023-10-08T09:39:53;20.90;99.90
20125;DHT22;10223;50.862;4.360;2023-10-08T09:42:21;21.30;99.90
20125;DHT22;10223;50.862;4.360;2023-10-08T09:44:50;21.10;99.90
20125;DHT22;10223;50.862;4.360;2023-10-08T09:47:21;21.40;99.90
20125;DHT22;10223;50.862;4.360;2023-10-08T09:49:56;21.30;99.90
20125;DHT22;10223;50.862;4.360;2023-10-08T09:52:33;21.80;99.90
20125;DHT22;10223;50.862;4.360;2023-10-08T09:55:08;22.30;99.90
20125;DHT22;10223;50.862;4.360;2023-10-08T09:57:36;22.90;99.90
20125;DHT22;10223;50.862;4.360;2023-10-08T10:00:05;23.20;99.90
20125;DHT22;10223;50.862;4.360;2023-10-08T10:02:36;23.10;99.90
20125;DHT22;10223;50.862;4.360;2023-10-08T10:05:04;23.20;99.90
20125;DHT22;10223;50.862;4.360;2023-10-08T10:07:31;23.20;99.90
20125;DHT22;10223;50.862;4.360;2023-10-08T10:09:58;23.20;99.90
20125;DHT22;10223;50.862;4.360;2023-10-08T10:12:27;23.30;99.90
20125;DHT22;10223;50.862;4.360;2023-10-08T10:14:55;23.80;99.90
20125;DHT22;10223;50.862;4.360;2023-10-08T10:17:23;23.80;99.90
20125;DHT22;10223;50.862;4.360;2023-10-08T10:19:54;23.70;99.90
20125;DHT22;10223;50.862;4.360;2023-10-08T10:22:28;23.40;99.90
20125;DHT22;10223;50.862;4.360;2023-10-08T10:24:56;23.40;99.90
20125;DHT22;10223;50.862;4.360;2023-10-08T10:27:23;23.60;99.90
20125;DHT22;10223;50.862;4.360;2023-10-08T10:30:03;24.00;99.90
20125;DHT22;10223;50.862;4.360;2023-10-08T10:32:35;24.30;99.90
20125;DHT22;10223;50.862;4.360;2023-10-08T10:35:03;24.00;99.90
20125;DHT22;10223;50.862;4.360;2023-10-08T10:37:31;24.10;99.90
20125;DHT22;10223;50.862;4.360;2023-10-08T10:40:07;23.80;99.90
20125;DHT22;10223;50.862;4.360;2023-10-08T10:42:38;24.40;99.90
20125;DHT22;10223;50.862;4.360;2023-10-08T10:45:14;24.30;99.90
20125;DHT22;10223;50.862;4.360;2023-10-08T10:48:01;24.10;99.90
20125;DHT22;10223;50.862;4.360;2023-10-08T10:50:39;24.10;99.90
20125;DHT22;10223;50.862;4.360;2023-10-08T10:53:26;24.40;99.90
20125;DHT22;10223;50.862;4.360;2023-10-08T10:55:55;24.20;99.90
20125;DHT22;10223;50.862;4.360;2023-10-08T10:58:26;24.30;99.90
20125;DHT22;10223;50.862;4.360;2023-10-08T11:00:55;23.80;99.90
20125;DHT22;10223;50.862;4.360;2023-10-08T11:03:25;23.70;99.90
20125;DHT22;10223;50.862;4.360;2023-10-08T11:05:57;23.80;99.90
20125;DHT22;10223;50.862;4.360;2023-10-08T11:08:31;23.80;99.90
20125;DHT22;10223;50.862;4.360;2023-10-08T11:11:01;24.10;99.90
20125;DHT22;10223;50.862;4.360;2023-10-08T11:13:33;24.30;99.90
20125;DHT22;10223;50.862;4.360;2023-10-08T11:16:07;24.70;99.90
20125;DHT22;10223;50.862;4.360;2023-10-08T11:18:35;24.70;99.90
20125;DHT22;10223;50.862;4.360;2023-10-08T11:21:07;24.90;99.90
20125;DHT22;10223;50.862;4.360;2023-10-08T11:23:42;24.90;99.90
20125;DHT22;10223;50.862;4.360;2023-10-08T11:26:12;25.00;99.90
20125;DHT22;10223;50.862;4.360;2023-10-08T11:28:42;24.80;99.90
20125;DHT22;10223;50.862;4.360;2023-10-08T11:31:12;24.70;99.90
20125;DHT22;10223;50.862;4.360;2023-10-08T11:33:40;24.50;99.90
20125;DHT22;10223;50.862;4.360;2023-10-08T11:36:09;24.10;99.90
20125;DHT22;10223;50.862;4.360;2023-10-08T11:38:44;24.20;99.90
20125;DHT22;10223;50.862;4.360;2023-10-08T11:41:14;24.10;99.90
20125;DHT22;10223;50.862;4.360;2023-10-08T11:43:51;23.90;99.90
20125;DHT22;10223;50.862;4.360;2023-10-08T11:46:24;24.00;99.90
20125;DHT22;10223;50.862;4.360;2023-10-08T11:48:53;24.40;99.90
20125;DHT22;10223;50.862;4.360;2023-10-08T11:51:23;23.80;99.90
20125;DHT22;10223;50.862;4.360;2023-10-08T11:53:50;23.80;99.90
20125;DHT22;10223;50.862;4.360;2023-10-08T11:56:19;23.80;99.90
20125;DHT22;10223;50.862;4.360;2023-10-08T11:58:49;24.10;99.90
20125;DHT22;10223;50.862;4.360;2023-10-08T12:01:17;24.30;99.90
20125;DHT22;10223;50.862;4.360;2023-10-08T12:03:45;24.10;99.90
20125;DHT22;10223;50.862;4.360;2023-10-08T12:06:15;24.40;99.90
20125;DHT22;10223;50.862;4.360;2023-10-08T12:08:44;24.70;99.90
20125;DHT22;10223;50.862;4.360;2023-10-08T12:11:14;25.10;99.90
20125;DHT22;10223;50.862;4.360;2023-10-08T12:13:42;25.20;99.90
20125;DHT22;10223;50.862;4.360;2023-10-08T12:16:13;25.10;99.90
20125;DHT22;10223;50.862;4.360;2023-10-08T12:18:45;24.70;99.90
20125;DHT22;10223;50.862;4.360;2023-10-08T12:21:18;25.10;99.90
20125;DHT22;10223;50.862;4.360;2023-10-08T12:23:45;25.30;99.90
20125;DHT22;10223;50.862;4.360;2023-10-08T12:26:13;25.30;99.90
20125;DHT22;10223;50.862;4.360;2023-10-08T12:28:44;25.60;99.90
20125;DHT22;10223;50.862;4.360;2023-10-08T12:31:12;26.00;99.90
20125;DHT22;10223;50.862;4.360;2023-10-08T12:33:41;26.00;99.90
20125;DHT22;10223;50.862;4.360;2023-10-08T12:36:10;25.70;99.90
20125;DHT22;10223;50.862;4.360;2023-10-08T12:38:38;25.60;99.90
20125;DHT22;10223;50.862;4.360;2023-10-08T12:41:06;25.50;99.90
20125;DHT22;10223;50.862;4.360;2023-10-08T12:43:38;25.20;99.90
20125;DHT22;10223;50.862;4.360;2023-10-08T12:46:08;25.40;99.90
20125;DHT22;10223;50.862;4.360;2023-10-08T12:48:44;25.60;99.90
20125;DHT22;10223;50.862;4.360;2023-10-08T12:51:14;26.10;99.90
20125;DHT22;10223;50.862;4.360;2023-10-08T12:53:41;26.60;99.90
20125;DHT22;10223;50.862;4.360;2023-10-08T12:56:16;27.20;99.90
20125;DHT22;10223;50.862;4.360;2023-10-08T12:58:47;27.90;99.90
20125;DHT22;10223;50.862;4.360;2023-10-08T13:01:14;28.20;99.90
20125;DHT22;10223;50.862;4.360;2023-10-08T13:03:43;28.00;99.90
20125;DHT22;10223;50.862;4.360;2023-10-08T13:06:15;27.90;99.90
20125;DHT22;10223;50.862;4.360;2023-10-08T13:08:48;27.50;99.90
20125;DHT22;10223;50.862;4.360;2023-10-08T13:11:15;26.80;99.90
20125;DHT22;10223;50.862;4.360;2023-10-08T13:13:48;27.50;99.90
20125;DHT22;10223;50.862;4.360;2023-10-08T13:16:15;28.60;99.90
20125;DHT22;10223;50.862;4.360;2023-10-08T13:18:42;29.10;99.90
20125;DHT22;10223;50.862;4.360;2023-10-08T13:21:09;29.00;99.90
20125;DHT22;10223;50.862;4.360;2023-10-08T13:23:37;28.40;99.90
20125;DHT22;10223;50.862;4.360;2023-10-08T13:26:05;28.20;99.90
20125;DHT22;10223;50.862;4.360;2023-10-08T13:28:33;28.60;99.90
20125;DHT22;10223;50.862;4.360;2023-10-08T13:31:00;28.70;99.90
20125;DHT22;10223;50.862;4.360;2023-10-08T13:33:35;29.30;99.90
20125;DHT22;10223;50.862;4.360;2023-10-08T13:36:05;28.80;99.90
20125;DHT22;10223;50.862;4.360;2023-10-08T13:38:33;28.90;99.90
20125;DHT22;10223;50.862;4.360;2023-10-08T13:41:02;28.30;99.90
20125;DHT22;10223;50.862;4.360;2023-10-08T13:43:32;28.40;99.90
20125;DHT22;10223;50.862;4.360;2023-10-08T13:46:03;27.80;99.90
20125;DHT22;10223;50.862;4.360;2023-10-08T13:48:32;27.40;99.90
20125;DHT22;10223;50.862;4.360;2023-10-08T13:51:00;27.20;99.90
20125;DHT22;10223;50.862;4.360;2023-10-08T13:53:29;27.20;99.90
20125;DHT22;10223;50.862;4.360;2023-10-08T13:55:57;27.40;99.90
20125;DHT22;10223;50.862;4.360;2023-10-08T13:58:27;27.70;99.90
20125;DHT22;10223;50.862;4.360;2023-10-08T14:00:55;28.20;99.90
20125;DHT22;10223;50.862;4.360;2023-10-08T14:03:22;28.10;99.90
20125;DHT22;10223;50.862;4.360;2023-10-08T14:05:50;28.90;99.90
20125;DHT22;10223;50.862;4.360;2023-10-08T14:08:18;29.50;99.90
20125;DHT22;10223;50.862;4.360;2023-10-08T14:10:45;29.70;99.90
20125;DHT22;10223;50.862;4.360;2023-10-08T14:13:14;30.00;99.90
20125;DHT22;10223;50.862;4.360;2023-10-08T14:15:46;30.20;99.90
20125;DHT22;10223;50.862;4.360;2023-10-08T14:18:22;29.90;99.90
20125;DHT22;10223;50.862;4.360;2023-10-08T14:20:53;30.00;99.90
20125;DHT22;10223;50.862;4.360;2023-10-08T14:23:21;29.40;99.90
20125;DHT22;10223;50.862;4.360;2023-10-08T14:25:50;29.30;99.90
20125;DHT22;10223;50.862;4.360;2023-10-08T14:28:18;29.50;99.90
20125;DHT22;10223;50.862;4.360;2023-10-08T14:31:06;29.40;99.90
20125;DHT22;10223;50.862;4.360;2023-10-08T14:33:32;29.30;99.90
20125;DHT22;10223;50.862;4.360;2023-10-08T14:36:07;29.20;99.90
20125;DHT22;10223;50.862;4.360;2023-10-08T14:38:57;29.10;99.90
20125;DHT22;10223;50.862;4.360;2023-10-08T14:41:47;29.60;99.90
20125;DHT22;10223;50.862;4.360;2023-10-08T14:44:34;29.80;99.90
20125;DHT22;10223;50.862;4.360;2023-10-08T14:47:04;30.00;99.90
20125;DHT22;10223;50.862;4.360;2023-10-08T14:49:31;29.30;99.90
20125;DHT22;10223;50.862;4.360;2023-10-08T14:52:05;28.80;99.90
20125;DHT22;10223;50.862;4.360;2023-10-08T14:54:34;27.80;99.90
20125;DHT22;10223;50.862;4.360;2023-10-08T14:57:05;27.30;99.90
20125;DHT22;10223;50.862;4.360;2023-10-08T14:59:40;27.40;99.90
20125;DHT22;10223;50.862;4.360;2023-10-08T15:02:08;27.50;99.90
20125;DHT22;10223;50.862;4.360;2023-10-08T15:04:36;27.80;99.90
20125;DHT22;10223;50.862;4.360;2023-10-08T15:07:05;27.50;99.90
20125;DHT22;10223;50.862;4.360;2023-10-08T15:09:43;27.10;99.90
20125;DHT22;10223;50.862;4.360;2023-10-08T15:12:10;26.90;99.90
20125;DHT22;10223;50.862;4.360;2023-10-08T15:14:37;26.50;99.90
20125;DHT22;10223;50.862;4.360;2023-10-08T15:17:04;26.40;99.90
20125;DHT22;10223;50.862;4.360;2023-10-08T15:19:32;26.00;99.90
20125;DHT22;10223;50.862;4.360;2023-10-08T15:21:59;25.70;99.90
20125;DHT22;10223;50.862;4.360;2023-10-08T15:24:26;25.30;99.90
20125;DHT22;10223;50.862;4.360;2023-10-08T15:26:54;25.20;99.90
20125;DHT22;10223;50.862;4.360;2023-10-08T15:29:22;25.10;99.90
20125;DHT22;10223;50.862;4.360;2023-10-08T15:31:53;25.20;99.90
20125;DHT22;10223;50.862;4.360;2023-10-08T15:34:27;25.00;99.90
20125;DHT22;10223;50.862;4.360;2023-10-08T15:37:01;24.90;99.90
20125;DHT22;10223;50.862;4.360;2023-10-08T15:39:32;24.80;99.90
20125;DHT22;10223;50.862;4.360;2023-10-08T15:42:08;24.90;99.90
20125;DHT22;10223;50.862;4.360;2023-10-08T15:44:35;24.90;99.90
20125;DHT22;10223;50.862;4.360;2023-10-08T15:47:02;24.70;99.90
20125;DHT22;10223;50.862;4.360;2023-10-08T15:49:29;24.50;99.90
20125;DHT22;10223;50.862;4.360;2023-10-08T15:51:55;24.40;99.90
20125;DHT22;10223;50.862;4.360;2023-10-08T15:54:24;24.30;99.90
20125;DHT22;10223;50.862;4.360;2023-10-08T15:56:50;24.20;99.90
20125;DHT22;10223;50.862;4.360;2023-10-08T15:59:20;24.00;99.90